createdAt,value
2022-11-01T00:01:54.546Z,99566.75
2022-11-01T00:04:23.104Z,99571.16
2022-11-01T00:06:52.105Z,99569.22
2022-11-01T00:09:20.515Z,99560.63
2022-11-01T00:11:50.428Z,99565.88
2022-11-01T00:14:21.017Z,99560.63
2022-11-01T00:16:49.918Z,99558.38
2022-11-01T00:19:18.558Z,99560.84
2022-11-01T00:21:46.930Z,99555.31
2022-11-01T00:24:15.342Z,99560.84
2022-11-01T00:26:43.838Z,99557.25
2022-11-01T00:29:14.428Z,99558.09
2022-11-01T00:31:43.040Z,99561.69
2022-11-01T00:34:11.347Z,99548.66
2022-11-01T00:36:39.725Z,99552.25
2022-11-01T00:39:08.271Z,99559.44
2022-11-01T00:41:36.796Z,99549.47
2022-11-01T00:44:05.358Z,99558.31
2022-11-01T00:46:36.587Z,99543.66
2022-11-01T00:49:05.077Z,99545.59
2022-11-01T00:51:33.564Z,99545.59
2022-11-01T00:54:01.883Z,99544.75
2022-11-01T00:56:30.239Z,99539.22
2022-11-01T00:58:58.596Z,99547.53
2022-11-01T01:01:27.083Z,99538.41
2022-11-01T01:03:56.866Z,99535.09
2022-11-01T01:06:25.267Z,99534.25
2022-11-01T01:08:53.680Z,99530.38
2022-11-01T01:11:22.038Z,99536.75
2022-11-01T01:13:50.370Z,99537.59
2022-11-01T01:16:18.790Z,99536.22
2022-11-01T01:18:47.176Z,99536.22
2022-11-01T01:21:17.619Z,99534.34
2022-11-01T01:23:46.947Z,99533.50
2022-11-01T01:26:15.315Z,99530.22
2022-11-01T01:28:44.885Z,99524.97
2022-11-01T01:31:14.694Z,99532.72
2022-11-01T01:33:43.117Z,99527.50
2022-11-01T01:36:12.092Z,99529.13
2022-11-01T01:38:41.843Z,99519.19
2022-11-01T01:41:27.690Z,99520.31
2022-11-01T01:43:56.075Z,99526.44
2022-11-01T01:46:24.427Z,99525.63
2022-11-01T01:49:00.194Z,99527.25
2022-11-01T01:51:30.736Z,99514.25
2022-11-01T01:54:00.698Z,99517.84
2022-11-01T01:56:35.671Z,99520.06
2022-11-01T01:59:07.833Z,99518.13
2022-11-01T02:01:40.150Z,99513.41
2022-11-01T02:04:17.045Z,99514.25
2022-11-01T02:06:45.686Z,99512.81
2022-11-01T02:09:19.075Z,99504.00
2022-11-01T02:11:47.840Z,99504.81
2022-11-01T02:14:17.724Z,99511.47
2022-11-01T02:16:55.864Z,99507.06
2022-11-01T02:20:26.593Z,99514.25
2022-11-01T02:23:44.791Z,99509.00
2022-11-01T02:26:34.311Z,99517.31
2022-11-01T02:29:20.043Z,99513.41
2022-11-01T02:32:12.676Z,99513.41
2022-11-01T02:34:47.085Z,99513.66
2022-11-01T02:37:23.725Z,99509.47
2022-11-01T02:39:57.925Z,99504.78
2022-11-01T02:42:32.718Z,99510.84
2022-11-01T02:45:06.811Z,99508.06
2022-11-01T02:47:37.871Z,99514.97
2022-11-01T02:50:10.731Z,99506.94
2022-11-01T02:52:42.836Z,99505.81
2022-11-01T02:55:30.079Z,99509.69
2022-11-01T02:58:02.287Z,99500.28
2022-11-01T03:00:34.385Z,99510.00
2022-11-01T03:03:13.501Z,99510.84
2022-11-01T03:05:56.212Z,99506.94
2022-11-01T03:08:28.798Z,99503.88
2022-11-01T03:11:07.903Z,99505.00
2022-11-01T03:13:54.572Z,99502.53
2022-11-01T03:16:32.210Z,99501.38
2022-11-01T03:19:19.038Z,99506.09
2022-11-01T03:21:57.982Z,99503.06
2022-11-01T03:24:29.993Z,99498.34
2022-11-01T03:27:06.122Z,99503.59
2022-11-01T03:29:37.707Z,99497.22
2022-11-01T03:32:08.076Z,99497.22
2022-11-01T03:34:40.151Z,99497.72
2022-11-01T03:37:12.715Z,99507.72
2022-11-01T03:39:46.956Z,99504.94
2022-11-01T03:42:19.914Z,99512.94
2022-11-01T03:44:55.360Z,99509.34
2022-11-01T03:47:24.227Z,99505.16
2022-11-01T03:50:16.832Z,99514.88
2022-11-01T03:52:45.592Z,99512.34
2022-11-01T03:55:20.893Z,99515.97
2022-11-01T03:57:51.441Z,99519.31
2022-11-01T04:00:22.484Z,99516.53
2022-11-01T04:02:51.359Z,99515.13
2022-11-01T04:05:22.977Z,99506.81
2022-11-01T04:07:52.387Z,99504.06
2022-11-01T04:10:23.979Z,99505.16
2022-11-01T04:12:53.495Z,99505.16
2022-11-01T04:15:42.003Z,99507.13
2022-11-01T04:18:50.782Z,99509.91
2022-11-01T04:21:23.091Z,99504.34
2022-11-01T04:23:51.491Z,99508.44
2022-11-01T04:26:22.126Z,99500.97
2022-11-01T04:28:57.969Z,99507.88
2022-11-01T04:31:28.453Z,99503.19
2022-11-01T04:33:57.440Z,99505.38
2022-11-01T04:36:27.994Z,99507.00
2022-11-01T04:38:58.484Z,99499.53
2022-11-01T04:41:29.219Z,99510.09
2022-11-01T04:43:59.255Z,99509.25
2022-11-01T04:46:30.841Z,99502.88
2022-11-01T04:48:59.208Z,99507.00
2022-11-01T04:51:29.044Z,99509.50
2022-11-01T04:53:57.560Z,99503.66
2022-11-01T04:56:25.908Z,99496.72
2022-11-01T04:58:54.251Z,99497.81
2022-11-01T05:01:22.645Z,99500.59
2022-11-01T05:03:51.123Z,99491.44
2022-11-01T05:06:19.457Z,99497.28
2022-11-01T05:08:49.181Z,99504.75
2022-11-01T05:11:17.528Z,99488.16
2022-11-01T05:13:45.887Z,99490.91
2022-11-01T05:16:19.317Z,99501.19
2022-11-01T05:18:48.689Z,99502.00
2022-11-01T05:21:17.299Z,99502.81
2022-11-01T05:23:48.114Z,99504.50
2022-11-01T05:26:17.923Z,99499.75
2022-11-01T05:28:46.268Z,99506.13
2022-11-01T05:31:14.623Z,99506.13
2022-11-01T05:33:43.001Z,99505.28
2022-11-01T05:36:11.515Z,99514.44
2022-11-01T05:38:39.936Z,99516.09
2022-11-01T05:41:08.384Z,99508.63
2022-11-01T05:43:38.153Z,99513.03
2022-11-01T05:46:07.201Z,99518.25
2022-11-01T05:48:36.063Z,99515.22
2022-11-01T05:51:04.450Z,99521.03
2022-11-01T05:53:32.868Z,99517.97
2022-11-01T05:56:01.497Z,99521.59
2022-11-01T05:58:30.978Z,99524.34
2022-11-01T06:01:02.073Z,99519.91
2022-11-01T06:03:30.882Z,99522.38
2022-11-01T06:05:59.722Z,99518.81
2022-11-01T06:08:28.791Z,99522.38
2022-11-01T06:11:03.770Z,99525.16
2022-11-01T06:13:32.814Z,99517.66
2022-11-01T06:16:04.420Z,99529.28
2022-11-01T06:18:33.292Z,99535.59
2022-11-01T06:21:01.653Z,99533.03
2022-11-01T06:23:30.016Z,99544.38
2022-11-01T06:26:02.837Z,99543.22
2022-11-01T06:28:31.255Z,99539.66
2022-11-01T06:33:34.194Z,99546.31
2022-11-01T06:36:03.127Z,99549.91
2022-11-01T06:38:31.705Z,99554.84
2022-11-01T06:41:00.103Z,99553.22
2022-11-01T06:43:28.476Z,99549.59
2022-11-01T06:45:56.849Z,99554.31
2022-11-01T06:48:26.558Z,99549.59
2022-11-01T06:50:55.921Z,99554.84
2022-11-01T06:53:25.435Z,99556.19
2022-11-01T06:55:53.980Z,99563.41
2022-11-01T06:58:22.385Z,99570.31
2022-11-01T07:00:51.464Z,99568.56
2022-11-01T07:03:20.478Z,99572.72
2022-11-01T07:05:50.602Z,99578.78
2022-11-01T07:08:19.111Z,99569.34
2022-11-01T07:10:47.516Z,99585.16
2022-11-01T07:13:15.879Z,99572.13
2022-11-01T07:15:44.361Z,99573.75
2022-11-01T07:18:12.846Z,99568.81
2022-11-01T07:20:44.518Z,99573.81
2022-11-01T07:23:16.464Z,99576.38
2022-11-01T07:25:45.487Z,99579.13
2022-11-01T07:28:13.850Z,99579.44
2022-11-01T07:30:42.251Z,99585.00
2022-11-01T07:33:11.045Z,99578.84
2022-11-01T07:35:39.405Z,99581.03
2022-11-01T07:38:09.853Z,99575.16
2022-11-01T07:40:42.918Z,99574.59
2022-11-01T07:43:11.566Z,99580.38
2022-11-01T07:45:39.985Z,99579.47
2022-11-01T07:48:11.839Z,99577.44
2022-11-01T07:50:42.158Z,99573.56
2022-11-01T07:53:13.146Z,99580.47
2022-11-01T07:55:43.880Z,99568.22
2022-11-01T07:58:13.114Z,99572.06
2022-11-01T08:00:44.404Z,99573.13
2022-11-01T08:03:14.963Z,99576.63
2022-11-01T08:05:44.959Z,99577.97
2022-11-01T08:08:13.724Z,99581.28
2022-11-01T08:10:43.941Z,99592.09
2022-11-01T08:13:18.815Z,99582.63
2022-11-01T08:15:48.319Z,99587.91
2022-11-01T08:18:17.397Z,99584.81
2022-11-01T08:20:46.119Z,99600.06
2022-11-01T08:23:14.813Z,99595.59
2022-11-01T08:25:44.880Z,99602.28
2022-11-01T08:28:16.675Z,99597.34
2022-11-01T08:30:47.681Z,99594.56
2022-11-01T08:33:16.100Z,99605.34
2022-11-01T08:35:50.073Z,99608.63
2022-11-01T08:38:18.883Z,99606.97
2022-11-01T08:40:49.177Z,99605.53
2022-11-01T08:43:17.796Z,99604.13
2022-11-01T08:45:46.182Z,99610.19
2022-11-01T08:48:14.950Z,99604.03
2022-11-01T08:50:43.370Z,99609.81
2022-11-01T08:53:15.211Z,99619.78
2022-11-01T08:55:43.674Z,99622.53
2022-11-01T08:58:13.601Z,99624.22
2022-11-01T09:00:42.578Z,99626.16
2022-11-01T09:03:10.953Z,99625.78
2022-11-01T09:05:39.373Z,99619.03
2022-11-01T09:08:08.157Z,99624.78
2022-11-01T09:10:36.596Z,99624.47
2022-11-01T09:13:05.335Z,99629.50
2022-11-01T09:15:35.365Z,99636.50
2022-11-01T09:18:07.420Z,99638.47
2022-11-01T09:20:36.001Z,99636.22
2022-11-01T09:23:04.933Z,99643.38
2022-11-01T09:25:33.578Z,99637.63
2022-11-01T09:28:02.121Z,99641.31
2022-11-01T09:30:31.032Z,99658.78
2022-11-01T09:33:04.834Z,99658.47
2022-11-01T09:35:33.405Z,99655.31
2022-11-01T09:38:03.071Z,99658.22
2022-11-01T09:40:39.191Z,99662.88
2022-11-01T09:43:10.638Z,99661.69
2022-11-01T09:45:39.282Z,99655.44
2022-11-01T09:48:09.389Z,99657.81
2022-11-01T09:50:40.171Z,99657.75
2022-11-01T09:53:18.323Z,99652.94
2022-11-01T09:55:55.937Z,99650.09
2022-11-01T09:58:37.993Z,99656.16
2022-11-01T10:01:27.273Z,99659.78
2022-11-01T10:04:32.483Z,99654.50
2022-11-01T10:07:08.573Z,99653.06
2022-11-01T10:09:48.399Z,99649.47
2022-11-01T10:12:33.551Z,99656.38
2022-11-01T10:15:29.423Z,99663.31
2022-11-01T10:18:08.080Z,99664.66
2022-11-01T10:20:41.183Z,99659.13
2022-11-01T10:23:13.562Z,99662.75
2022-11-01T10:25:48.922Z,99663.31
2022-11-01T10:28:23.773Z,99667.66
2022-11-01T10:30:58.574Z,99658.09
2022-11-01T10:33:33.029Z,99656.25
2022-11-01T10:36:06.976Z,99646.91
2022-11-01T10:39:10.701Z,99642.19
2022-11-01T10:41:33.325Z,99653.00
2022-11-01T10:44:05.771Z,99641.03
2022-11-01T10:46:41.584Z,99646.13
2022-11-01T10:49:24.594Z,99639.09
2022-11-01T10:52:00.281Z,99649.19
2022-11-01T10:54:32.384Z,99634.75
2022-11-01T10:57:07.374Z,99640.28
2022-11-01T10:59:41.331Z,99638.78
2022-11-01T11:02:19.520Z,99637.94
2022-11-01T11:04:50.020Z,99638.31
2022-11-01T11:07:23.986Z,99639.41
2022-11-01T11:09:52.847Z,99636.63
2022-11-01T11:12:24.980Z,99640.19
2022-11-01T11:14:59.093Z,99637.19
2022-11-01T11:17:32.622Z,99642.81
2022-11-01T11:20:06.029Z,99639.72
2022-11-01T11:22:40.589Z,99642.25
2022-11-01T11:25:17.733Z,99636.03
2022-11-01T11:27:48.609Z,99634.59
2022-11-01T11:30:30.332Z,99640.22
2022-11-01T11:33:00.289Z,99639.84
2022-11-01T11:35:32.793Z,99632.56
2022-11-01T11:38:06.278Z,99630.63
2022-11-01T11:40:46.733Z,99625.06
2022-11-01T11:43:24.553Z,99625.84
2022-11-01T11:46:08.929Z,99623.41
2022-11-01T11:48:48.686Z,99630.63
2022-11-01T11:51:17.449Z,99626.25
2022-11-01T11:54:21.219Z,99621.44
2022-11-01T11:56:52.884Z,99604.16
2022-11-01T11:59:26.897Z,99613.19
2022-11-01T12:02:05.710Z,99611.34
2022-11-01T12:04:41.834Z,99612.41
2022-11-01T12:07:35.423Z,99608.13
2022-11-01T12:10:28.327Z,99620.75
2022-11-01T12:12:57.443Z,99615.06
2022-11-01T12:15:34.406Z,99607.34
2022-11-01T12:18:16.045Z,99613.34
2022-11-01T12:20:49.896Z,99614.25
2022-11-01T12:23:28.269Z,99622.59
2022-11-01T12:26:00.893Z,99620.13
2022-11-01T12:28:36.779Z,99610.97
2022-11-01T12:31:12.923Z,99615.53
2022-11-01T12:33:48.542Z,99617.34
2022-11-01T12:36:19.127Z,99621.28
2022-11-01T12:38:50.597Z,99627.00
2022-11-01T12:41:32.894Z,99617.16
2022-11-01T12:44:17.884Z,99620.75
2022-11-01T12:46:51.623Z,99608.91
2022-11-01T12:49:31.899Z,99608.25
2022-11-01T12:52:09.014Z,99613.59
2022-11-01T12:54:43.476Z,99610.53
2022-11-01T12:57:19.333Z,99608.38
2022-11-01T12:59:49.638Z,99616.13
2022-11-01T13:02:59.273Z,99609.66
2022-11-01T13:05:40.224Z,99611.56
2022-11-01T13:08:22.185Z,99606.19
2022-11-01T13:10:51.329Z,99606.75
2022-11-01T13:13:29.410Z,99609.72
2022-11-01T13:16:06.150Z,99602.66
2022-11-01T13:18:48.457Z,99594.25
2022-11-01T13:21:28.839Z,99596.41
2022-11-01T13:24:05.509Z,99589.84
2022-11-01T13:26:41.523Z,99594.09
2022-11-01T13:29:18.580Z,99602.81
2022-11-01T13:32:02.200Z,99600.16
2022-11-01T13:34:45.803Z,99604.28
2022-11-01T13:37:26.149Z,99611.84
2022-11-01T13:40:15.696Z,99617.28
2022-11-01T13:42:52.555Z,99618.53
2022-11-01T13:46:07.045Z,99616.31
2022-11-01T13:48:55.335Z,99615.25
2022-11-01T13:51:40.227Z,99622.53
2022-11-01T13:54:22.968Z,99623.53
2022-11-01T13:57:00.110Z,99631.81
2022-11-01T13:59:34.319Z,99638.06
2022-11-01T14:02:57.242Z,99626.53
2022-11-01T14:05:39.997Z,99627.38
2022-11-01T14:08:34.506Z,99626.91
2022-11-01T14:11:03.088Z,99637.75
2022-11-01T14:13:37.982Z,99633.94
2022-11-01T14:16:22.747Z,99636.88
2022-11-01T14:19:20.534Z,99641.44
2022-11-01T14:21:54.261Z,99639.47
2022-11-01T14:24:35.156Z,99647.97
2022-11-01T14:27:24.433Z,99644.81
2022-11-01T14:29:54.535Z,99641.97
2022-11-01T14:32:26.427Z,99644.84
2022-11-01T14:35:06.279Z,99644.75
2022-11-01T14:37:42.190Z,99646.81
2022-11-01T14:40:34.242Z,99647.03
2022-11-01T14:43:12.956Z,99651.84
2022-11-01T14:45:46.703Z,99657.81
2022-11-01T14:48:23.521Z,99657.50
2022-11-01T14:51:00.765Z,99664.13
2022-11-01T14:53:34.870Z,99660.97
2022-11-01T14:56:18.446Z,99648.91
2022-11-01T14:58:47.853Z,99661.09
2022-11-01T15:01:20.744Z,99667.72
2022-11-01T15:03:57.318Z,99659.91
2022-11-01T15:06:30.417Z,99667.16
2022-11-01T15:09:00.515Z,99665.69
2022-11-01T15:11:31.734Z,99668.97
2022-11-01T15:14:03.294Z,99660.81
2022-11-01T15:16:35.848Z,99671.84
2022-11-01T15:19:08.974Z,99674.50
2022-11-01T15:21:47.441Z,99678.81
2022-11-01T15:24:26.094Z,99681.78
2022-11-01T15:26:55.548Z,99693.28
2022-11-01T15:29:26.081Z,99698.75
2022-11-01T15:32:00.578Z,99699.41
2022-11-01T15:34:32.346Z,99696.16
2022-11-01T15:37:12.173Z,99696.03
2022-11-01T15:39:41.155Z,99693.34
2022-11-01T15:42:16.102Z,99691.25
2022-11-01T15:44:46.309Z,99691.34
2022-11-01T15:47:20.107Z,99698.38
2022-11-01T15:49:54.747Z,99711.22
2022-11-01T15:52:27.579Z,99716.53
2022-11-01T15:55:03.605Z,99714.38
2022-11-01T15:57:38.905Z,99717.44
2022-11-01T16:00:18.335Z,99718.59
2022-11-01T16:02:51.382Z,99715.81
2022-11-01T16:05:24.598Z,99718.59
2022-11-01T16:07:55.792Z,99715.28
2022-11-01T16:10:27.921Z,99710.84
2022-11-01T16:12:57.713Z,99715.28
2022-11-01T16:15:29.881Z,99715.28
2022-11-01T16:18:00.292Z,99717.44
2022-11-01T16:20:36.784Z,99723.28
2022-11-01T16:23:07.529Z,99724.66
2022-11-01T16:25:38.619Z,99721.56
2022-11-01T16:28:30.750Z,99724.66
2022-11-01T16:30:59.632Z,99725.69
2022-11-01T16:33:43.114Z,99723.44
2022-11-01T16:36:36.961Z,99734.84
2022-11-01T16:39:30.937Z,99737.94
2022-11-01T16:42:00.202Z,99740.41
2022-11-01T16:44:29.798Z,99745.44
2022-11-01T16:46:58.801Z,99751.31
2022-11-01T16:49:30.841Z,99756.59
2022-11-01T16:52:00.446Z,99755.25
2022-11-01T16:54:30.620Z,99752.25
2022-11-01T16:56:59.757Z,99750.06
2022-11-01T16:59:37.017Z,99747.34
2022-11-01T17:02:19.025Z,99759.03
2022-11-01T17:04:52.154Z,99761.28
2022-11-01T17:07:21.875Z,99759.66
2022-11-01T17:09:52.882Z,99764.97
2022-11-01T17:12:21.814Z,99761.97
2022-11-01T17:14:52.626Z,99762.03
2022-11-01T17:17:24.934Z,99765.38
2022-11-01T17:20:04.603Z,99761.00
2022-11-01T17:22:39.608Z,99765.50
2022-11-01T17:25:20.336Z,99769.16
2022-11-01T17:27:52.810Z,99769.44
2022-11-01T17:30:23.254Z,99773.63
2022-11-01T17:32:52.015Z,99781.13
2022-11-01T17:35:24.231Z,99775.59
2022-11-01T17:37:57.271Z,99783.91
2022-11-01T17:40:28.188Z,99778.34
2022-11-01T17:42:57.361Z,99786.69
2022-11-01T17:45:26.808Z,99793.31
2022-11-01T17:47:58.097Z,99789.72
2022-11-01T17:50:28.475Z,99790.88
2022-11-01T17:52:58.697Z,99793.09
2022-11-01T17:55:30.238Z,99797.00
2022-11-01T17:57:59.346Z,99785.38
2022-11-01T18:00:29.170Z,99781.22
2022-11-01T18:02:59.113Z,99787.09
2022-11-01T18:05:28.639Z,99782.09
2022-11-01T18:07:58.362Z,99781.59
2022-11-01T18:10:43.201Z,99791.31
2022-11-01T18:13:37.705Z,99782.75
2022-11-01T18:16:19.766Z,99784.41
2022-11-01T18:19:07.759Z,99780.25
2022-11-01T18:21:52.473Z,99782.47
2022-11-01T18:24:28.948Z,99774.97
2022-11-01T18:27:01.114Z,99769.97
2022-11-01T18:29:34.238Z,99777.66
2022-11-01T18:32:18.768Z,99772.97
2022-11-01T18:34:56.402Z,99767.13
2022-11-01T18:37:32.815Z,99769.59
2022-11-01T18:40:14.190Z,99777.09
2022-11-01T18:42:48.179Z,99776.00
2022-11-01T18:45:29.756Z,99773.50
2022-11-01T18:48:21.393Z,99773.25
2022-11-01T18:50:51.973Z,99767.41
2022-11-01T18:53:22.966Z,99761.63
2022-11-01T18:55:52.730Z,99764.69
2022-11-01T18:58:29.299Z,99762.78
2022-11-01T19:01:12.151Z,99767.81
2022-11-01T19:03:43.588Z,99769.22
2022-11-01T19:06:22.013Z,99772.59
2022-11-01T19:08:57.263Z,99767.63
2022-11-01T19:11:30.136Z,99767.09
2022-11-01T19:14:03.483Z,99773.22
2022-11-01T19:16:38.658Z,99768.25
2022-11-01T19:19:16.518Z,99774.94
2022-11-01T19:21:46.961Z,99778.81
2022-11-01T19:24:32.565Z,99780.22
2022-11-01T19:27:02.876Z,99776.34
2022-11-01T19:29:37.640Z,99781.88
2022-11-01T19:32:18.190Z,99771.63
2022-11-01T19:34:52.080Z,99775.22
2022-11-01T19:37:30.451Z,99783.25
2022-11-01T19:40:07.053Z,99775.47
2022-11-01T19:42:37.585Z,99778.75
2022-11-01T19:45:35.605Z,99777.13
2022-11-01T19:48:13.127Z,99780.13
2022-11-01T19:50:44.963Z,99787.03
2022-11-01T19:53:24.075Z,99785.09
2022-11-01T19:56:00.803Z,99789.50
2022-11-01T19:58:38.823Z,99793.63
2022-11-01T20:01:41.928Z,99794.78
2022-11-01T20:04:31.576Z,99797.25
2022-11-01T20:07:13.034Z,99798.59
2022-11-01T20:09:45.184Z,99803.03
2022-11-01T20:12:19.991Z,99804.69
2022-11-01T20:14:52.267Z,99808.28
2022-11-01T20:17:25.001Z,99809.66
2022-11-01T20:19:57.274Z,99811.03
2022-11-01T20:22:32.665Z,99817.38
2022-11-01T20:25:06.594Z,99824.06
2022-11-01T20:27:37.259Z,99826.53
2022-11-01T20:30:11.013Z,99826.81
2022-11-01T20:32:46.416Z,99828.22
2022-11-01T20:35:17.805Z,99828.22
2022-11-01T20:37:48.141Z,99823.00
2022-11-01T20:40:18.565Z,99832.94
2022-11-01T20:42:47.673Z,99840.41
2022-11-01T20:45:19.259Z,99826.03
2022-11-01T20:47:50.634Z,99831.56
2022-11-01T20:50:21.599Z,99828.81
2022-11-01T20:52:51.963Z,99829.34
2022-11-01T20:55:21.556Z,99836.53
2022-11-01T20:57:52.336Z,99830.16
2022-11-01T21:00:22.669Z,99839.03
2022-11-01T21:02:53.670Z,99838.75
2022-11-01T21:05:27.683Z,99842.06
2022-11-01T21:08:02.251Z,99837.03
2022-11-01T21:10:34.918Z,99831.50
2022-11-01T21:13:05.912Z,99830.34
2022-11-01T21:15:40.958Z,99824.00
2022-11-01T21:18:46.072Z,99821.28
2022-11-01T21:21:42.422Z,99814.91
2022-11-01T21:24:33.843Z,99824.34
2022-11-01T21:27:24.615Z,99822.38
2022-11-01T21:29:59.764Z,99818.47
2022-11-01T21:32:34.929Z,99822.88
2022-11-01T21:35:38.387Z,99827.59
2022-11-01T21:38:36.073Z,99823.13
2022-11-01T21:41:26.782Z,99815.63
2022-11-01T21:43:57.121Z,99820.88
2022-11-01T21:46:38.409Z,99822.00
2022-11-01T21:49:25.659Z,99822.53
2022-11-01T21:51:57.785Z,99818.88
2022-11-01T21:54:26.493Z,99821.38
2022-11-01T21:56:55.026Z,99826.63
2022-11-01T21:59:23.861Z,99835.75
2022-11-01T22:01:52.307Z,99829.91
2022-11-01T22:04:23.356Z,99830.75
2022-11-01T22:06:56.005Z,99825.72
2022-11-01T22:09:24.426Z,99822.66
2022-11-01T22:11:52.788Z,99812.13
2022-11-01T22:14:21.447Z,99813.53
2022-11-01T22:16:49.864Z,99812.38
2022-11-01T22:19:18.312Z,99799.34
2022-11-01T22:24:21.599Z,99810.44
2022-11-01T22:26:49.958Z,99806.56
2022-11-01T22:29:18.354Z,99804.06
2022-11-01T22:31:46.953Z,99814.06
2022-11-01T22:34:17.345Z,99816.00
2022-11-01T22:36:45.798Z,99810.44
2022-11-01T22:39:18.461Z,99798.53
2022-11-01T22:41:48.548Z,99789.38
2022-11-01T22:44:20.067Z,99787.72
2022-11-01T22:46:56.987Z,99792.16
2022-11-01T22:49:30.365Z,99797.41
2022-11-01T22:52:03.360Z,99797.41
2022-11-01T22:54:38.638Z,99800.47
2022-11-01T22:57:17.720Z,99798.53
2022-11-01T22:59:49.897Z,99800.19
2022-11-01T23:02:28.152Z,99809.88
2022-11-01T23:05:20.289Z,99815.41
2022-11-01T23:07:51.059Z,99803.72
2022-11-01T23:10:27.702Z,99802.91
2022-11-01T23:13:31.620Z,99809.56
2022-11-01T23:16:02.376Z,99807.38
2022-11-01T23:18:33.998Z,99800.41
2022-11-01T23:21:06.705Z,99793.75
2022-11-01T23:23:37.843Z,99796.22
2022-11-01T23:26:06.663Z,99799.53
2022-11-01T23:28:37.301Z,99802.03
2022-11-01T23:31:06.339Z,99794.81
2022-11-01T23:33:40.769Z,99795.94
2022-11-01T23:36:19.606Z,99794.59
2022-11-01T23:38:52.237Z,99796.22
2022-11-01T23:41:26.655Z,99790.16
2022-11-01T23:44:01.361Z,99800.72
2022-11-01T23:46:30.295Z,99797.63
2022-11-01T23:49:04.353Z,99796.28
2022-11-01T23:51:32.750Z,99795.47
2022-11-01T23:54:01.238Z,99790.50
2022-11-01T23:56:29.840Z,99793.84
2022-11-01T23:59:05.061Z,99794.47
